Aérodrome :
LOGIN :

S'inscrire | Disclaimer

   EN    FR    IT 

 










Légende :    VFR   VFR Marginal   IFR   IFR Intensif   IFR Très Intensif
Visi : 
Plafond : 
>= 8 km
>= 3000ft
5 à 8 km
1000 à 3000 ft
1500m à 5 km
500 à 1000 ft
800 à 1500m
200 à 500 ft
< 800m
< 200 ft
Symboles :   Orages  Brouillard  Fortes neiges  Fortes précipitations  Vent > 20 kt
SIGMETs :   Divers  Orages  Givrage  Turbulence  Onde Orograph.  Cendres Volcan.







- Altitude de l'aérodrome : 499 ft
- Code IATA : TLS
- Voir les cartes d'approche


LFBO - Toulouse / Blagnac

DERNIER METAR :
  • 240000Z AUTO 27006KT 240V300 9999 -RA NSC 19/15 Q1019 NOSIG

METARs EXPIRÉS :
  • 232330Z AUTO 27013KT CAVOK 19/14 Q1019 NOSIG
  • 232300Z AUTO 27012KT CAVOK 20/14 Q1019 NOSIG
  • 232230Z AUTO 27013KT CAVOK 20/14 Q1019 NOSIG
  • 232200Z AUTO 26011KT CAVOK 20/14 Q1019 NOSIG
  • 232130Z AUTO 26012KT CAVOK 20/13 Q1020 NOSIG

TAF TAF LFBO
Valide du 24 à 00h jusqu'au 25 à 06h UTC


232300Z 2400/2506 25012KT 9999 BKN025
TEMPO 2404/2410 3000 -RA BKN010
TEMPO 2412/2424 30015G25KT
TEMPO 2500/2506 BKN010
ATIS : +33 5 62 74 66 36
Pas de NOTAMs connus pour ce terrain.



MET'MAP, la Météo Aéronautique d'un coup d'oeil ! - Copyright ORBIFLY Décembre 2007 - Disclaimer

ORBIFLY MET'MAP TEAM :

Programmation & Développement : Alexandra Zaïnal
Conception & Développement : Baudouin d'Aumeries
Co-Programmation & Développement : Marc-Olivier Méhu
Soutien technique & logistique : Manuel Goepfert

Contact : metmap@orbifly.com




SOURCES & CREDITS :

   NOAA